createdAt,value
2023-01-22T00:01:24.631Z,101642.70
2023-01-22T00:03:54.590Z,101640.71
2023-01-22T00:06:23.714Z,101641.27
2023-01-22T00:08:53.136Z,101644.53
2023-01-22T00:11:21.666Z,101650.05
2023-01-22T00:13:49.632Z,101651.69
2023-01-22T00:16:18.381Z,101654.61
2023-01-22T00:18:46.534Z,101657.17
2023-01-22T00:21:14.545Z,101659.62
2023-01-22T00:23:42.499Z,101657.14
2023-01-22T00:26:13.928Z,101653.34
2023-01-22T00:28:46.915Z,101652.61
2023-01-22T00:31:17.032Z,101652.88
2023-01-22T00:33:47.260Z,101655.40
2023-01-22T00:36:19.475Z,101656.84
2023-01-22T00:38:50.668Z,101657.06
2023-01-22T00:41:20.018Z,101650.38
2023-01-22T00:43:50.120Z,101651.48
2023-01-22T00:46:20.118Z,101648.16
2023-01-22T00:48:51.195Z,101648.88
2023-01-22T00:51:20.202Z,101646.09
2023-01-22T00:53:48.117Z,101640.11
2023-01-22T00:56:17.737Z,101637.74
2023-01-22T00:58:45.769Z,101641.41
2023-01-22T01:01:15.589Z,101643.17
2023-01-22T01:03:43.642Z,101645.80
2023-01-22T01:06:21.682Z,101643.23
2023-01-22T01:08:50.222Z,101645.13
2023-01-22T01:11:23.172Z,101654.27
2023-01-22T01:13:51.640Z,101656.73
2023-01-22T01:16:32.071Z,101655.96
2023-01-22T01:19:03.120Z,101661.82
2023-01-22T01:21:31.605Z,101661.55
2023-01-22T01:24:00.828Z,101668.21
2023-01-22T01:26:28.945Z,101666.80
2023-01-22T01:28:57.027Z,101672.59
2023-01-22T01:31:26.282Z,101663.80
2023-01-22T01:33:57.923Z,101671.03
2023-01-22T01:36:50.072Z,101671.39
2023-01-22T01:39:14.112Z,101672.08
2023-01-22T01:41:42.060Z,101672.58
2023-01-22T01:44:21.955Z,101673.77
2023-01-22T01:46:55.727Z,101675.02
2023-01-22T01:49:32.226Z,101675.24
2023-01-22T01:52:05.103Z,101675.06
2023-01-22T01:54:33.016Z,101676.77
2023-01-22T01:57:19.391Z,101678.88
2023-01-22T01:59:49.840Z,101677.27
2023-01-22T02:02:20.473Z,101679.46
2023-01-22T02:04:51.267Z,101676.09
2023-01-22T02:07:20.799Z,101676.78
2023-01-22T02:09:48.794Z,101682.00
2023-01-22T02:12:16.863Z,101680.97
2023-01-22T02:14:45.936Z,101684.34
2023-01-22T02:17:19.319Z,101682.24
2023-01-22T02:19:48.075Z,101683.73
2023-01-22T02:22:38.713Z,101686.35
2023-01-22T02:25:07.732Z,101690.00
2023-01-22T02:27:35.696Z,101695.71
2023-01-22T02:30:08.345Z,101696.53
2023-01-22T02:32:36.353Z,101702.08
2023-01-22T02:35:04.632Z,101697.27
2023-01-22T02:37:32.634Z,101697.44
2023-01-22T02:40:00.594Z,101700.35
2023-01-22T02:42:29.612Z,101700.45
2023-01-22T02:44:57.568Z,101698.35
2023-01-22T02:47:25.835Z,101701.66
2023-01-22T02:49:54.798Z,101707.15
2023-01-22T02:52:23.244Z,101707.84
2023-01-22T02:54:51.248Z,101706.80
2023-01-22T02:57:19.342Z,101708.23
2023-01-22T02:59:47.807Z,101717.13
2023-01-22T03:02:15.771Z,101719.27
2023-01-22T03:04:46.566Z,101724.63
2023-01-22T03:07:14.457Z,101728.31
2023-01-22T03:09:43.673Z,101724.96
2023-01-22T03:12:12.738Z,101729.13
2023-01-22T03:15:00.159Z,101728.77
2023-01-22T03:17:46.662Z,101730.41
2023-01-22T03:20:34.321Z,101726.73
2023-01-22T03:23:02.222Z,101723.96
2023-01-22T03:25:30.076Z,101727.35
2023-01-22T03:28:18.915Z,101733.52
2023-01-22T03:30:52.915Z,101730.47
2023-01-22T03:33:21.081Z,101728.52
2023-01-22T03:35:50.228Z,101731.30
2023-01-22T03:38:21.111Z,101734.41
2023-01-22T03:40:49.035Z,101731.58
2023-01-22T03:43:17.558Z,101731.67
2023-01-22T03:45:45.554Z,101731.36
2023-01-22T03:48:15.315Z,101736.19
2023-01-22T03:50:43.262Z,101738.70
2023-01-22T03:53:11.160Z,101737.03
2023-01-22T03:55:39.060Z,101739.23
2023-01-22T03:58:06.965Z,101738.76
2023-01-22T04:00:36.086Z,101741.45
2023-01-22T04:03:06.415Z,101741.45
2023-01-22T04:05:37.252Z,101746.04
2023-01-22T04:08:05.375Z,101742.50
2023-01-22T04:10:34.169Z,101747.29
2023-01-22T04:13:04.095Z,101744.36
2023-01-22T04:15:32.172Z,101744.97
2023-01-22T04:18:03.122Z,101751.65
2023-01-22T04:20:41.072Z,101756.12
2023-01-22T04:23:31.269Z,101750.61
2023-01-22T04:25:59.311Z,101753.22
2023-01-22T04:28:27.309Z,101757.05
2023-01-22T04:30:56.968Z,101759.45
2023-01-22T04:33:51.260Z,101759.20
2023-01-22T04:36:23.387Z,101765.90
2023-01-22T04:38:51.355Z,101766.89
2023-01-22T04:41:19.808Z,101770.30
2023-01-22T04:43:48.408Z,101773.23
2023-01-22T04:46:16.846Z,101777.08
2023-01-22T04:48:46.404Z,101780.55
2023-01-22T04:51:14.972Z,101787.81
2023-01-22T04:53:43.264Z,101791.33
2023-01-22T04:56:11.293Z,101793.11
2023-01-22T04:58:39.910Z,101792.56
2023-01-22T05:01:08.005Z,101796.70
2023-01-22T05:03:35.995Z,101803.50
2023-01-22T05:06:05.495Z,101803.92
2023-01-22T05:08:36.199Z,101808.17
2023-01-22T05:11:05.097Z,101811.77
2023-01-22T05:13:42.253Z,101812.09
2023-01-22T05:16:10.291Z,101815.28
2023-01-22T05:18:38.348Z,101819.80
2023-01-22T05:21:06.392Z,101818.57
2023-01-22T05:23:35.359Z,101816.45
2023-01-22T05:26:03.533Z,101825.34
2023-01-22T05:29:00.697Z,101828.76
2023-01-22T05:31:39.152Z,101829.73
2023-01-22T05:34:11.976Z,101830.58
2023-01-22T05:36:39.933Z,101833.48
2023-01-22T05:39:16.249Z,101831.42
2023-01-22T05:41:44.607Z,101833.73
2023-01-22T05:44:14.352Z,101830.84
2023-01-22T05:46:44.733Z,101828.74
2023-01-22T05:49:26.623Z,101827.17
2023-01-22T05:51:57.399Z,101824.48
2023-01-22T05:54:25.438Z,101828.36
2023-01-22T05:56:53.631Z,101829.72
2023-01-22T05:59:21.633Z,101833.28
2023-01-22T06:01:56.033Z,101833.25
2023-01-22T06:04:24.055Z,101827.96
2023-01-22T06:06:51.992Z,101831.81
2023-01-22T06:09:21.449Z,101837.11
2023-01-22T06:11:49.757Z,101836.17
2023-01-22T06:14:17.812Z,101838.19
2023-01-22T06:16:45.789Z,101846.17
2023-01-22T06:19:22.484Z,101843.90
2023-01-22T06:21:53.819Z,101846.08
2023-01-22T06:24:26.854Z,101849.09
2023-01-22T06:26:54.968Z,101856.39
2023-01-22T06:29:25.374Z,101858.41
2023-01-22T06:31:54.191Z,101860.99
2023-01-22T06:34:22.971Z,101862.71
2023-01-22T06:36:50.831Z,101866.34
2023-01-22T06:39:19.118Z,101867.61
2023-01-22T06:41:58.301Z,101871.04
2023-01-22T06:44:26.457Z,101878.05
2023-01-22T06:46:54.621Z,101878.42
2023-01-22T06:49:26.391Z,101883.52
2023-01-22T06:51:55.839Z,101885.92
2023-01-22T06:54:24.408Z,101890.17
2023-01-22T06:56:52.388Z,101893.69
2023-01-22T06:59:22.674Z,101896.10
2023-01-22T07:01:50.732Z,101898.63
2023-01-22T07:04:18.715Z,101900.52
2023-01-22T07:06:46.745Z,101899.63
2023-01-22T07:09:14.649Z,101902.05
2023-01-22T07:11:42.654Z,101900.29
2023-01-22T07:14:10.666Z,101903.08
2023-01-22T07:16:38.625Z,101904.42
2023-01-22T07:19:06.579Z,101904.64
2023-01-22T07:21:34.481Z,101907.42
2023-01-22T07:24:02.533Z,101910.50
2023-01-22T07:26:30.465Z,101913.36
2023-01-22T07:28:58.385Z,101919.05
2023-01-22T07:31:26.554Z,101922.33
2023-01-22T07:33:54.830Z,101927.63
2023-01-22T07:36:23.053Z,101932.25
2023-01-22T07:38:51.000Z,101936.97
2023-01-22T07:41:25.811Z,101944.64
2023-01-22T07:43:55.969Z,101943.09
2023-01-22T07:46:24.252Z,101946.44
2023-01-22T07:48:52.528Z,101948.87
2023-01-22T07:51:21.095Z,101948.36
2023-01-22T07:53:49.113Z,101949.09
2023-01-22T07:56:19.078Z,101949.50
2023-01-22T07:58:47.084Z,101950.64
2023-01-22T08:01:15.898Z,101946.49
2023-01-22T08:03:45.094Z,101952.05
2023-01-22T08:06:17.696Z,101957.92
2023-01-22T08:08:45.733Z,101960.33
2023-01-22T08:11:14.223Z,101965.04
2023-01-22T08:13:42.195Z,101966.33
2023-01-22T08:16:10.066Z,101970.89
2023-01-22T08:18:38.267Z,101973.39
2023-01-22T08:21:06.684Z,101978.50
2023-01-22T08:23:34.682Z,101982.95
2023-01-22T08:26:04.313Z,101977.34
2023-01-22T08:28:32.705Z,101978.61
2023-01-22T08:31:03.194Z,101981.02
2023-01-22T08:33:34.063Z,101978.86
2023-01-22T08:36:02.255Z,101982.98
2023-01-22T08:38:30.423Z,101986.13
2023-01-22T08:40:58.372Z,101987.27
2023-01-22T08:43:26.416Z,101992.64
2023-01-22T08:45:54.490Z,101994.52
2023-01-22T08:48:22.493Z,101995.08
2023-01-22T08:50:50.412Z,101998.48
2023-01-22T08:53:18.341Z,101996.67
2023-01-22T08:55:50.186Z,101991.80
2023-01-22T08:58:20.318Z,101995.00
2023-01-22T09:00:49.021Z,101996.33
2023-01-22T09:03:17.054Z,102001.05
2023-01-22T09:05:44.987Z,101999.05
2023-01-22T09:08:13.087Z,101997.98
2023-01-22T09:10:41.064Z,101996.32
2023-01-22T09:13:10.474Z,101998.73
2023-01-22T09:15:40.474Z,102001.61
2023-01-22T09:18:08.389Z,102001.27
2023-01-22T09:20:36.298Z,102003.57
2023-01-22T09:23:04.348Z,102010.20
2023-01-22T09:25:32.292Z,102012.06
2023-01-22T09:28:01.174Z,102015.30
2023-01-22T09:30:30.462Z,102014.02
2023-01-22T09:32:58.881Z,102009.64
2023-01-22T09:35:28.118Z,102014.36
2023-01-22T09:37:56.243Z,102016.20
2023-01-22T09:40:32.365Z,102014.70
2023-01-22T09:43:07.172Z,102017.84
2023-01-22T09:45:40.705Z,102019.48
2023-01-22T09:48:18.168Z,102015.70
2023-01-22T09:50:46.866Z,102009.60
2023-01-22T09:53:21.365Z,102010.80
2023-01-22T09:55:53.006Z,102017.33
2023-01-22T09:58:23.371Z,102016.11
2023-01-22T10:01:00.699Z,102016.03
2023-01-22T10:03:37.875Z,102013.67
2023-01-22T10:06:18.721Z,102017.70
2023-01-22T10:09:12.568Z,102014.45
2023-01-22T10:11:40.554Z,102012.73
2023-01-22T10:14:15.950Z,102011.89
2023-01-22T10:16:45.451Z,102016.02
2023-01-22T10:19:42.272Z,102023.17
2023-01-22T10:22:23.261Z,102028.00
2023-01-22T10:24:52.161Z,102030.78
2023-01-22T10:27:32.747Z,102035.78
2023-01-22T10:30:07.598Z,102044.67
2023-01-22T10:32:35.484Z,102046.02
2023-01-22T10:35:21.652Z,102042.18
2023-01-22T10:37:55.765Z,102046.05
2023-01-22T10:40:38.159Z,102048.72
2023-01-22T10:43:13.526Z,102047.66
2023-01-22T10:46:23.326Z,102051.90
2023-01-22T10:49:06.221Z,102033.17
2023-01-22T10:51:43.959Z,102043.73
2023-01-22T10:54:34.765Z,102045.66
2023-01-22T10:57:25.352Z,102045.69
2023-01-22T11:00:05.823Z,102042.80
2023-01-22T11:02:35.830Z,102041.49
2023-01-22T11:05:21.090Z,102040.57
2023-01-22T11:08:06.225Z,102041.83
2023-01-22T11:10:50.327Z,102043.17
2023-01-22T11:13:52.651Z,102040.59
2023-01-22T11:16:24.067Z,102039.23
2023-01-22T11:19:00.957Z,102035.13
2023-01-22T11:21:42.777Z,102030.41
2023-01-22T11:24:22.840Z,102033.35
2023-01-22T11:27:36.723Z,102033.40
2023-01-22T11:30:28.790Z,102029.11
2023-01-22T11:33:30.754Z,102034.86
2023-01-22T11:36:09.975Z,102034.20
2023-01-22T11:39:25.543Z,102031.31
2023-01-22T11:42:14.160Z,102032.58
2023-01-22T11:45:07.073Z,102031.02
2023-01-22T11:48:09.927Z,102033.51
2023-01-22T11:51:15.167Z,102029.54
2023-01-22T11:53:58.826Z,102026.21
2023-01-22T11:56:54.579Z,102029.13
2023-01-22T11:59:56.494Z,102033.73
2023-01-22T12:03:09.265Z,102034.60
2023-01-22T12:08:28.399Z,102032.65
2023-01-22T12:11:26.626Z,102032.80
2023-01-22T12:14:15.799Z,102027.90
2023-01-22T12:17:34.481Z,102032.02
2023-01-22T12:22:52.359Z,102028.23
2023-01-22T12:25:51.080Z,102035.31
2023-01-22T12:28:46.837Z,102032.67
2023-01-22T12:31:49.763Z,102037.95
2023-01-22T12:34:32.356Z,102036.11
2023-01-22T12:37:03.795Z,102044.76
2023-01-22T12:39:43.180Z,102047.48
2023-01-22T12:42:57.685Z,102044.05
2023-01-22T12:45:53.645Z,102043.40
2023-01-22T12:49:10.007Z,102048.35
2023-01-22T12:51:44.492Z,102047.63
2023-01-22T12:54:26.150Z,102044.48
2023-01-22T12:56:57.954Z,102046.77
2023-01-22T12:59:34.752Z,102043.58
2023-01-22T13:02:39.371Z,102042.21
2023-01-22T13:05:25.640Z,102051.22
2023-01-22T13:08:38.317Z,102056.18
2023-01-22T13:11:13.869Z,102060.58
2023-01-22T13:14:00.664Z,102063.77
2023-01-22T13:16:39.307Z,102062.26
2023-01-22T13:19:32.186Z,102065.62
2023-01-22T13:22:00.897Z,102066.63
2023-01-22T13:24:28.881Z,102066.52
2023-01-22T13:27:03.202Z,102071.46
2023-01-22T13:29:37.318Z,102073.19
2023-01-22T13:32:17.726Z,102070.75
2023-01-22T13:34:45.742Z,102074.07
2023-01-22T13:37:26.259Z,102075.40
2023-01-22T13:39:54.277Z,102078.38
2023-01-22T13:42:24.717Z,102077.56
2023-01-22T13:44:53.141Z,102083.23
2023-01-22T13:47:29.843Z,102082.60
2023-01-22T13:49:58.391Z,102087.11
2023-01-22T13:52:28.517Z,102088.50
2023-01-22T13:55:11.974Z,102088.33
2023-01-22T13:57:51.997Z,102091.33
2023-01-22T14:00:24.239Z,102090.39
2023-01-22T14:02:52.826Z,102092.69
2023-01-22T14:05:27.855Z,102092.71
2023-01-22T14:08:13.407Z,102098.11
2023-01-22T14:10:42.267Z,102103.73
2023-01-22T14:13:13.347Z,102096.83
2023-01-22T14:15:41.918Z,102102.23
2023-01-22T14:18:13.539Z,102104.77
2023-01-22T14:20:44.865Z,102099.98
2023-01-22T14:23:15.080Z,102104.28
2023-01-22T14:25:49.619Z,102108.39
2023-01-22T14:28:18.645Z,102106.71
2023-01-22T14:30:46.559Z,102107.27
2023-01-22T14:33:24.780Z,102110.92
2023-01-22T14:35:54.185Z,102114.14
2023-01-22T14:38:24.046Z,102121.59
2023-01-22T14:40:52.287Z,102121.60
2023-01-22T14:43:20.997Z,102121.17
2023-01-22T14:45:49.234Z,102124.45
2023-01-22T14:48:20.270Z,102122.31
2023-01-22T14:50:49.802Z,102124.73
2023-01-22T14:53:19.473Z,102122.02
2023-01-22T14:55:47.406Z,102126.50
2023-01-22T14:58:16.311Z,102126.97
2023-01-22T15:00:44.844Z,102125.15
2023-01-22T15:03:12.725Z,102128.70
2023-01-22T15:05:40.849Z,102130.33
2023-01-22T15:08:08.780Z,102133.64
2023-01-22T15:10:36.713Z,102130.30
2023-01-22T15:13:04.652Z,102133.05
2023-01-22T15:15:32.603Z,102132.95
2023-01-22T15:18:00.502Z,102132.67
2023-01-22T15:20:29.141Z,102134.95
2023-01-22T15:22:57.153Z,102136.85
2023-01-22T15:25:25.180Z,102139.60
2023-01-22T15:27:53.165Z,102142.10
2023-01-22T15:30:21.486Z,102150.08
2023-01-22T15:32:49.617Z,102149.48
2023-01-22T15:35:17.783Z,102155.14
2023-01-22T15:37:47.364Z,102157.80
2023-01-22T15:40:15.597Z,102156.55
2023-01-22T15:42:43.493Z,102160.58
2023-01-22T15:45:11.774Z,102160.23
2023-01-22T15:47:39.741Z,102158.22
2023-01-22T15:50:08.964Z,102156.50
2023-01-22T15:52:36.984Z,102166.00
2023-01-22T15:55:05.882Z,102166.02
2023-01-22T15:57:33.776Z,102167.01
2023-01-22T16:00:01.978Z,102168.67
2023-01-22T16:02:40.348Z,102171.72
2023-01-22T16:05:08.701Z,102172.48
2023-01-22T16:07:36.631Z,102173.48
2023-01-22T16:10:05.961Z,102180.43
2023-01-22T16:12:34.748Z,102179.90
2023-01-22T16:15:02.654Z,102175.52
2023-01-22T16:17:30.628Z,102181.06
2023-01-22T16:19:58.492Z,102180.12
2023-01-22T16:22:26.342Z,102170.79
2023-01-22T16:24:54.405Z,102185.62
2023-01-22T16:27:22.452Z,102183.09
2023-01-22T16:29:50.422Z,102188.27
2023-01-22T16:32:18.302Z,102192.18
2023-01-22T16:34:46.189Z,102191.86
2023-01-22T16:37:14.106Z,102195.98
2023-01-22T16:39:42.043Z,102193.77
2023-01-22T16:42:09.974Z,102195.33
2023-01-22T16:44:38.046Z,102200.15
2023-01-22T16:47:05.957Z,102199.06
2023-01-22T16:49:35.153Z,102201.08
2023-01-22T16:52:21.062Z,102210.13
2023-01-22T16:54:50.841Z,102215.16
2023-01-22T16:57:20.091Z,102219.09
2023-01-22T16:59:48.067Z,102217.22
2023-01-22T17:02:19.004Z,102218.24
2023-01-22T17:04:47.248Z,102218.92
2023-01-22T17:07:31.645Z,102219.13
2023-01-22T17:10:01.273Z,102220.72
2023-01-22T17:12:29.576Z,102218.13
2023-01-22T17:14:57.606Z,102224.37
2023-01-22T17:17:25.667Z,102227.34
2023-01-22T17:19:53.557Z,102232.22
2023-01-22T17:22:21.598Z,102231.42
2023-01-22T17:24:52.612Z,102235.47
2023-01-22T17:27:21.441Z,102240.39
2023-01-22T17:29:49.436Z,102244.85
2023-01-22T17:32:17.409Z,102245.92
2023-01-22T17:34:45.507Z,102247.52
2023-01-22T17:37:13.620Z,102248.56
2023-01-22T17:39:42.941Z,102247.74
2023-01-22T17:42:10.818Z,102251.91
2023-01-22T17:44:41.022Z,102244.40
2023-01-22T17:47:09.463Z,102256.55
2023-01-22T17:49:37.534Z,102255.85
2023-01-22T17:52:06.120Z,102263.22
2023-01-22T17:54:34.275Z,102259.48
2023-01-22T17:57:02.184Z,102270.05
2023-01-22T17:59:30.079Z,102270.51
2023-01-22T18:01:59.630Z,102278.35
2023-01-22T18:04:31.672Z,102280.59
2023-01-22T18:06:59.639Z,102285.44
2023-01-22T18:09:27.507Z,102288.73
2023-01-22T18:11:57.828Z,102290.85
2023-01-22T18:14:30.947Z,102292.40
2023-01-22T18:16:59.225Z,102293.51
2023-01-22T18:19:28.064Z,102302.17
2023-01-22T18:21:56.257Z,102301.32
2023-01-22T18:24:26.306Z,102300.50
2023-01-22T18:26:54.789Z,102304.10
2023-01-22T18:29:22.763Z,102302.41
2023-01-22T18:31:50.817Z,102301.05
2023-01-22T18:34:19.483Z,102300.45
2023-01-22T18:36:47.573Z,102297.92
2023-01-22T18:39:18.397Z,102292.27
2023-01-22T18:41:47.088Z,102300.14
2023-01-22T18:44:17.332Z,102299.14
2023-01-22T18:46:48.206Z,102302.58
2023-01-22T18:49:18.823Z,102301.78
2023-01-22T18:51:47.556Z,102307.02
2023-01-22T18:54:16.561Z,102309.13
2023-01-22T18:56:46.344Z,102309.63
2023-01-22T18:59:14.424Z,102308.41
2023-01-22T19:01:49.997Z,102310.47
2023-01-22T19:04:21.962Z,102314.86
2023-01-22T19:06:53.356Z,102313.58
2023-01-22T19:09:21.436Z,102316.83
2023-01-22T19:11:52.263Z,102318.78
2023-01-22T19:14:21.534Z,102324.18
2023-01-22T19:16:53.455Z,102326.59
2023-01-22T19:19:25.425Z,102330.40
2023-01-22T19:21:55.578Z,102329.08
2023-01-22T19:24:27.936Z,102332.67
2023-01-22T19:26:57.220Z,102334.86
2023-01-22T19:29:26.458Z,102336.52
2023-01-22T19:31:58.077Z,102322.53
2023-01-22T19:34:29.580Z,102337.55
2023-01-22T19:37:06.283Z,102337.10
2023-01-22T19:39:35.492Z,102343.19
2023-01-22T19:42:05.191Z,102343.40
2023-01-22T19:44:34.859Z,102347.58
2023-01-22T19:47:03.280Z,102347.28
2023-01-22T19:49:31.983Z,102348.74
2023-01-22T19:52:02.117Z,102353.33
2023-01-22T19:54:30.204Z,102351.39
2023-01-22T19:56:58.104Z,102354.61
2023-01-22T19:59:26.126Z,102356.45
2023-01-22T20:01:54.182Z,102352.97
2023-01-22T20:04:29.839Z,102360.48
2023-01-22T20:07:01.852Z,102359.48
2023-01-22T20:09:31.199Z,102354.59
2023-01-22T20:12:02.142Z,102355.17
2023-01-22T20:14:34.048Z,102357.16
2023-01-22T20:17:02.612Z,102355.10
2023-01-22T20:19:31.695Z,102359.44
2023-01-22T20:22:02.789Z,102361.23
2023-01-22T20:24:30.840Z,102357.50
2023-01-22T20:26:58.873Z,102372.00
2023-01-22T20:29:27.061Z,102371.05
2023-01-22T20:31:55.756Z,102369.60
2023-01-22T20:34:23.849Z,102362.59
2023-01-22T20:36:52.124Z,102366.41
2023-01-22T20:39:21.216Z,102370.52
2023-01-22T20:41:49.396Z,102374.79
2023-01-22T20:44:17.564Z,102376.47
2023-01-22T20:46:45.802Z,102374.88
2023-01-22T20:49:13.764Z,102377.73
2023-01-22T20:51:42.586Z,102378.42
2023-01-22T20:54:10.872Z,102373.34
2023-01-22T20:56:38.862Z,102372.33
2023-01-22T20:59:12.371Z,102376.26
2023-01-22T21:01:41.100Z,102378.66
2023-01-22T21:04:10.214Z,102380.44
2023-01-22T21:06:42.464Z,102381.50
2023-01-22T21:09:11.603Z,102381.50
2023-01-22T21:11:41.815Z,102385.13
2023-01-22T21:14:17.809Z,102392.15
2023-01-22T21:16:46.150Z,102395.78
2023-01-22T21:19:23.458Z,102396.30
2023-01-22T21:21:52.657Z,102395.39
2023-01-22T21:24:20.971Z,102398.89
2023-01-22T21:26:48.902Z,102403.13
2023-01-22T21:29:23.085Z,102398.05
2023-01-22T21:31:52.646Z,102397.16
2023-01-22T21:34:25.780Z,102393.41
2023-01-22T21:36:58.250Z,102390.31
2023-01-22T21:39:29.871Z,102394.08
2023-01-22T21:42:16.892Z,102389.98
2023-01-22T21:45:03.633Z,102390.30
2023-01-22T21:47:32.286Z,102385.37
2023-01-22T21:50:00.230Z,102390.31
2023-01-22T21:52:28.192Z,102395.02
2023-01-22T21:54:56.813Z,102400.90
2023-01-22T21:57:25.491Z,102403.61
2023-01-22T21:59:53.361Z,102409.50
2023-01-22T22:02:22.310Z,102414.55
2023-01-22T22:04:50.351Z,102412.84
2023-01-22T22:07:18.229Z,102413.50
2023-01-22T22:09:46.136Z,102415.09
2023-01-22T22:12:14.211Z,102414.17
2023-01-22T22:14:42.191Z,102414.61
2023-01-22T22:17:10.803Z,102416.94
2023-01-22T22:19:38.933Z,102419.05
2023-01-22T22:22:06.973Z,102423.11
2023-01-22T22:24:34.896Z,102423.11
2023-01-22T22:27:02.763Z,102422.45
2023-01-22T22:29:30.673Z,102419.48
2023-01-22T22:31:58.705Z,102423.62
2023-01-22T22:34:26.818Z,102428.75
2023-01-22T22:36:54.891Z,102430.89
2023-01-22T22:39:22.944Z,102435.48
2023-01-22T22:41:50.864Z,102440.12
2023-01-22T22:44:18.832Z,102442.83
2023-01-22T22:46:46.739Z,102440.23
2023-01-22T22:49:14.646Z,102445.30
2023-01-22T22:51:43.689Z,102445.84
2023-01-22T22:54:18.284Z,102448.86
2023-01-22T22:56:48.566Z,102455.86
2023-01-22T22:59:19.718Z,102459.16
2023-01-22T23:01:49.894Z,102458.71
2023-01-22T23:04:17.982Z,102454.95
2023-01-22T23:06:46.874Z,102465.65
2023-01-22T23:09:19.751Z,102465.52
2023-01-22T23:11:51.445Z,102465.34
2023-01-22T23:14:19.400Z,102466.97
2023-01-22T23:16:49.764Z,102467.98
2023-01-22T23:19:25.040Z,102467.56
2023-01-22T23:21:58.897Z,102472.56
2023-01-22T23:24:27.820Z,102475.91
2023-01-22T23:26:56.992Z,102474.33
2023-01-22T23:29:26.815Z,102479.02
2023-01-22T23:31:55.899Z,102482.40
2023-01-22T23:34:24.214Z,102486.25
2023-01-22T23:36:52.225Z,102490.95
2023-01-22T23:39:21.260Z,102488.98
2023-01-22T23:41:49.505Z,102491.69
2023-01-22T23:44:17.607Z,102489.31
2023-01-22T23:46:45.650Z,102489.50
2023-01-22T23:49:13.595Z,102495.19
2023-01-22T23:51:43.591Z,102496.81
2023-01-22T23:54:11.723Z,102497.15
2023-01-22T23:56:39.671Z,102498.27
2023-01-22T23:59:07.512Z,102503.27
